createdAt,value
2023-05-02T00:02:23.503Z,101911.53
2023-05-02T00:04:51.628Z,101911.47
2023-05-02T00:07:20.658Z,101918.59
2023-05-02T00:09:48.786Z,101917.78
2023-05-02T00:12:16.722Z,101912.41
2023-05-02T00:14:44.686Z,101921.41
2023-05-02T00:17:19.925Z,101928.47
2023-05-02T00:19:48.289Z,101925.00
2023-05-02T00:22:16.242Z,101923.19
2023-05-02T00:24:45.406Z,101925.88
2023-05-02T00:27:14.339Z,101927.63
2023-05-02T00:29:42.570Z,101921.41
2023-05-02T00:32:10.702Z,101916.06
2023-05-02T00:34:40.069Z,101929.47
2023-05-02T00:37:08.358Z,101924.09
2023-05-02T00:39:36.424Z,101917.97
2023-05-02T00:42:04.526Z,101933.09
2023-05-02T00:44:32.637Z,101931.28
2023-05-02T00:47:02.809Z,101931.28
2023-05-02T00:49:31.079Z,101931.34
2023-05-02T00:52:00.956Z,101934.03
2023-05-02T00:54:29.073Z,101937.66
2023-05-02T00:56:57.596Z,101933.22
2023-05-02T00:59:27.975Z,101937.66
2023-05-02T01:02:06.057Z,101939.41
2023-05-02T01:04:45.036Z,101943.03
2023-05-02T01:07:31.377Z,101931.41
2023-05-02T01:10:15.690Z,101941.25
2023-05-02T01:12:50.934Z,101945.75
2023-05-02T01:15:23.522Z,101939.53
2023-05-02T01:17:53.626Z,101938.59
2023-05-02T01:20:24.686Z,101943.06
2023-05-02T01:22:57.265Z,101937.72
2023-05-02T01:25:32.762Z,101938.66
2023-05-02T01:28:11.861Z,101940.41
2023-05-02T01:30:44.091Z,101941.44
2023-05-02T01:33:13.422Z,101938.66
2023-05-02T01:35:43.951Z,101947.56
2023-05-02T01:38:16.816Z,101942.28
2023-05-02T01:40:49.728Z,101949.47
2023-05-02T01:43:20.499Z,101957.50
2023-05-02T01:45:54.240Z,101959.28
2023-05-02T01:48:23.203Z,101961.09
2023-05-02T01:50:53.375Z,101962.84
2023-05-02T01:53:22.543Z,101963.78
2023-05-02T01:56:01.181Z,101966.44
2023-05-02T01:58:31.741Z,101967.41
2023-05-02T02:01:05.977Z,101955.81
2023-05-02T02:03:34.427Z,101967.41
2023-05-02T02:06:04.103Z,101962.13
2023-05-02T02:08:32.219Z,101973.72
2023-05-02T02:11:05.473Z,101977.31
2023-05-02T02:13:38.507Z,101977.31
2023-05-02T02:16:12.609Z,101975.56
2023-05-02T02:18:40.813Z,101972.03
2023-05-02T02:21:12.777Z,101977.31
2023-05-02T02:23:43.529Z,101980.94
2023-05-02T02:26:13.489Z,101983.59
2023-05-02T02:28:42.924Z,101990.78
2023-05-02T02:31:12.491Z,101991.66
2023-05-02T02:33:41.148Z,101992.59
2023-05-02T02:36:16.308Z,102006.84
2023-05-02T02:38:51.703Z,101997.09
2023-05-02T02:41:27.653Z,102007.81
2023-05-02T02:44:05.497Z,102019.47
2023-05-02T02:46:46.082Z,102019.47
2023-05-02T02:49:27.077Z,102024.81
2023-05-02T02:52:03.160Z,102026.59
2023-05-02T02:54:35.680Z,102033.78
2023-05-02T02:57:08.666Z,102029.34
2023-05-02T02:59:41.270Z,102025.81
2023-05-02T03:02:13.598Z,102026.69
2023-05-02T03:04:42.570Z,102031.16
2023-05-02T03:07:11.238Z,102030.22
2023-05-02T03:09:42.986Z,102037.41
2023-05-02T03:12:11.161Z,102043.63
2023-05-02T03:14:40.408Z,102051.66
2023-05-02T03:17:09.940Z,102047.25
2023-05-02T03:19:38.221Z,102052.59
2023-05-02T03:22:06.666Z,102057.97
2023-05-02T03:24:34.572Z,102061.59
2023-05-02T03:27:03.070Z,102057.09
2023-05-02T03:29:31.089Z,102058.03
2023-05-02T03:31:59.142Z,102058.09
2023-05-02T03:34:28.661Z,102059.81
2023-05-02T03:36:56.728Z,102056.34
2023-05-02T03:39:24.683Z,102069.66
2023-05-02T03:41:54.967Z,102082.19
2023-05-02T03:44:22.999Z,102092.03
2023-05-02T03:46:53.652Z,102089.38
2023-05-02T03:49:21.992Z,102084.00
2023-05-02T03:51:51.304Z,102085.75
2023-05-02T03:54:19.469Z,102083.13
2023-05-02T03:56:47.952Z,102093.00
2023-05-02T03:59:16.340Z,102095.72
2023-05-02T04:01:44.269Z,102108.19
2023-05-02T04:04:12.555Z,102098.47
2023-05-02T04:06:40.544Z,102101.22
2023-05-02T04:09:09.932Z,102107.44
2023-05-02T04:11:37.921Z,102108.38
2023-05-02T04:14:05.884Z,102109.31
2023-05-02T04:16:33.900Z,102109.38
2023-05-02T04:19:01.879Z,102116.47
2023-05-02T04:21:29.873Z,102112.06
2023-05-02T04:23:57.846Z,102118.28
2023-05-02T04:26:27.204Z,102122.78
2023-05-02T04:28:55.118Z,102125.47
2023-05-02T04:31:23.219Z,102129.00
2023-05-02T04:33:51.263Z,102130.84
2023-05-02T04:36:19.837Z,102138.84
2023-05-02T04:38:49.487Z,102147.66
2023-05-02T04:41:17.580Z,102150.31
2023-05-02T04:43:46.925Z,102162.66
2023-05-02T04:46:15.066Z,102158.25
2023-05-02T04:48:43.017Z,102162.66
2023-05-02T04:51:11.160Z,102164.44
2023-05-02T04:53:39.302Z,102168.97
2023-05-02T04:56:07.627Z,102173.34
2023-05-02T04:58:36.285Z,102182.28
2023-05-02T05:01:05.599Z,102176.94
2023-05-02T05:03:34.251Z,102194.03
2023-05-02T05:06:02.606Z,102195.88
2023-05-02T05:08:30.692Z,102197.75
2023-05-02T05:10:58.743Z,102202.25
2023-05-02T05:13:27.049Z,102201.38
2023-05-02T05:15:55.270Z,102208.53
2023-05-02T05:18:24.786Z,102207.66
2023-05-02T05:20:52.740Z,102213.00
2023-05-02T05:23:20.681Z,102214.81
2023-05-02T05:25:48.663Z,102223.78
2023-05-02T05:28:17.529Z,102238.06
2023-05-02T05:30:45.636Z,102239.88
2023-05-02T05:33:13.788Z,102243.50
2023-05-02T05:35:43.206Z,102244.34
2023-05-02T05:38:11.129Z,102243.50
2023-05-02T05:40:39.105Z,102242.59
2023-05-02T05:43:07.135Z,102253.25
2023-05-02T05:45:35.222Z,102260.41
2023-05-02T05:48:03.610Z,102267.63
2023-05-02T05:50:31.712Z,102272.13
2023-05-02T05:53:01.150Z,102275.75
2023-05-02T05:55:32.120Z,102282.91
2023-05-02T05:58:00.030Z,102277.53
2023-05-02T06:00:30.564Z,102287.31
2023-05-02T06:02:58.571Z,102293.63
2023-05-02T06:05:26.698Z,102303.38
2023-05-02T06:07:57.621Z,102305.13
2023-05-02T06:10:26.986Z,102312.28
2023-05-02T06:12:54.977Z,102318.50
2023-05-02T06:15:25.961Z,102320.31
2023-05-02T06:17:54.155Z,102323.88
2023-05-02T06:20:22.189Z,102333.63
2023-05-02T06:22:50.190Z,102329.28
2023-05-02T06:25:18.331Z,102335.53
2023-05-02T06:27:50.220Z,102339.94
2023-05-02T06:30:18.334Z,102347.09
2023-05-02T06:32:46.486Z,102352.47
2023-05-02T06:35:14.699Z,102342.78
2023-05-02T06:37:42.711Z,102356.13
2023-05-02T06:40:11.616Z,102358.78
2023-05-02T06:42:42.208Z,102373.09
2023-05-02T06:45:12.456Z,102365.91
2023-05-02T06:47:40.479Z,102372.06
2023-05-02T06:50:09.763Z,102375.69
2023-05-02T06:52:37.733Z,102382.84
2023-05-02T06:55:06.472Z,102391.75
2023-05-02T06:57:34.502Z,102390.81
2023-05-02T07:00:02.741Z,102400.66
2023-05-02T07:02:32.531Z,102389.09
2023-05-02T07:05:00.514Z,102402.41
2023-05-02T07:07:28.513Z,102404.22
2023-05-02T07:09:56.501Z,102407.81
2023-05-02T07:12:24.456Z,102415.78
2023-05-02T07:14:55.675Z,102420.28
2023-05-02T07:17:25.435Z,102420.28
2023-05-02T07:19:55.148Z,102426.47
2023-05-02T07:22:23.123Z,102422.00
2023-05-02T07:24:59.058Z,102424.69
2023-05-02T07:27:27.089Z,102425.59
2023-05-02T07:29:55.115Z,102427.38
2023-05-02T07:32:25.251Z,102437.19
2023-05-02T07:34:56.231Z,102437.19
2023-05-02T07:37:24.537Z,102441.66
2023-05-02T07:39:52.440Z,102439.03
2023-05-02T07:42:23.113Z,102450.56
2023-05-02T07:44:51.034Z,102446.13
2023-05-02T07:47:18.988Z,102448.75
2023-05-02T07:49:46.893Z,102448.75
2023-05-02T07:52:16.204Z,102458.59
2023-05-02T07:54:44.166Z,102461.28
2023-05-02T07:57:13.516Z,102461.28
2023-05-02T07:59:41.451Z,102459.47
2023-05-02T08:02:09.445Z,102468.44
2023-05-02T08:04:37.934Z,102469.41
2023-05-02T08:07:06.198Z,102469.41
2023-05-02T08:09:35.729Z,102473.91
2023-05-02T08:12:03.745Z,102478.41
2023-05-02T08:14:31.792Z,102477.53
2023-05-02T08:17:00.001Z,102480.19
2023-05-02T08:19:29.659Z,102483.75
2023-05-02T08:21:57.720Z,102492.66
2023-05-02T08:24:25.680Z,102500.69
2023-05-02T08:26:54.990Z,102505.03
2023-05-02T08:29:23.009Z,102505.03
2023-05-02T08:31:51.019Z,102507.69
2023-05-02T08:34:19.211Z,102505.88
2023-05-02T08:36:48.167Z,102510.34
2023-05-02T08:39:17.081Z,102521.00
2023-05-02T08:41:45.697Z,102509.38
2023-05-02T08:44:15.074Z,102506.72
2023-05-02T08:46:43.764Z,102513.81
2023-05-02T08:49:12.331Z,102514.66
2023-05-02T08:51:42.322Z,102516.41
2023-05-02T08:54:11.038Z,102521.78
2023-05-02T08:56:39.552Z,102521.78
2023-05-02T08:59:10.456Z,102519.06
2023-05-02T09:01:45.927Z,102522.59
2023-05-02T09:04:14.776Z,102518.97
2023-05-02T09:06:42.887Z,102527.03
2023-05-02T09:09:11.149Z,102520.78
2023-05-02T09:11:39.854Z,102538.69
2023-05-02T09:14:16.176Z,102527.88
2023-05-02T09:16:46.406Z,102546.63
2023-05-02T09:19:26.686Z,102549.31
2023-05-02T09:22:01.301Z,102549.31
2023-05-02T09:24:29.593Z,102559.16
2023-05-02T09:27:03.053Z,102561.78
2023-05-02T09:29:36.201Z,102562.72
2023-05-02T09:32:07.533Z,102565.38
2023-05-02T09:34:37.342Z,102565.38
2023-05-02T09:37:06.340Z,102568.91
2023-05-02T09:39:34.344Z,102564.44
2023-05-02T09:42:03.548Z,102562.66
2023-05-02T09:44:39.223Z,102568.00
2023-05-02T09:47:09.368Z,102568.00
2023-05-02T09:49:41.357Z,102572.38
2023-05-02T09:52:12.781Z,102583.16
2023-05-02T09:54:40.832Z,102584.03
2023-05-02T09:57:10.697Z,102587.59
2023-05-02T09:59:42.360Z,102587.59
2023-05-02T10:02:13.453Z,102582.16
2023-05-02T10:04:42.936Z,102579.47
2023-05-02T10:07:12.127Z,102578.56
2023-05-02T10:09:45.413Z,102577.72
2023-05-02T10:12:16.920Z,102575.03
2023-05-02T10:14:50.793Z,102582.13
2023-05-02T10:17:24.053Z,102579.47
2023-05-02T10:19:57.990Z,102581.25
2023-05-02T10:22:27.024Z,102582.16
2023-05-02T10:24:55.272Z,102581.28
2023-05-02T10:27:23.473Z,102583.09
2023-05-02T10:29:53.563Z,102577.75
2023-05-02T10:32:24.908Z,102583.97
2023-05-02T10:34:53.869Z,102580.44
2023-05-02T10:37:22.361Z,102589.28
2023-05-02T10:39:51.407Z,102583.00
2023-05-02T10:42:22.446Z,102573.25
2023-05-02T10:44:51.729Z,102581.19
2023-05-02T10:47:21.478Z,102585.59
2023-05-02T10:49:58.410Z,102586.56
2023-05-02T10:52:27.670Z,102586.63
2023-05-02T10:55:16.919Z,102583.06
2023-05-02T10:58:22.519Z,102595.44
2023-05-02T11:00:50.591Z,102592.78
2023-05-02T11:03:51.770Z,102585.69
2023-05-02T11:06:21.238Z,102584.75
2023-05-02T11:08:49.348Z,102582.94
2023-05-02T11:11:42.808Z,102595.44
2023-05-02T11:14:12.757Z,102590.09
2023-05-02T11:17:11.433Z,102586.56
2023-05-02T11:20:27.706Z,102587.38
2023-05-02T11:22:59.386Z,102586.47
2023-05-02T11:25:39.042Z,102586.47
2023-05-02T11:28:48.192Z,102584.75
2023-05-02T11:32:02.444Z,102582.06
2023-05-02T11:34:40.398Z,102583.81
2023-05-02T11:37:15.651Z,102583.00
2023-05-02T11:39:46.644Z,102584.75
2023-05-02T11:42:30.080Z,102580.25
2023-05-02T11:44:59.339Z,102584.75
2023-05-02T11:47:29.599Z,102592.78
2023-05-02T11:49:59.861Z,102592.75
2023-05-02T11:52:27.901Z,102592.66
2023-05-02T11:54:57.646Z,102590.88
2023-05-02T11:57:25.836Z,102597.09
2023-05-02T11:59:54.147Z,102596.16
2023-05-02T12:02:36.234Z,102597.97
2023-05-02T12:05:06.086Z,102597.53
2023-05-02T12:07:38.335Z,102599.81
2023-05-02T12:10:09.930Z,102605.06
2023-05-02T12:12:38.940Z,102610.31
2023-05-02T12:15:08.935Z,102614.81
2023-05-02T12:17:40.126Z,102611.19
2023-05-02T12:20:10.053Z,102613.84
2023-05-02T12:22:38.788Z,102614.56
2023-05-02T12:25:09.793Z,102617.16
2023-05-02T12:27:38.016Z,102618.00
2023-05-02T12:30:07.642Z,102623.28
2023-05-02T12:32:38.704Z,102633.06
2023-05-02T12:35:21.812Z,102641.34
2023-05-02T12:37:49.850Z,102634.50
2023-05-02T12:40:19.178Z,102636.38
2023-05-02T12:43:00.488Z,102634.22
2023-05-02T12:45:33.692Z,102638.38
2023-05-02T12:48:02.507Z,102635.97
2023-05-02T12:50:38.083Z,102648.13
2023-05-02T12:53:07.621Z,102643.41
2023-05-02T12:55:37.722Z,102647.72
2023-05-02T12:58:07.513Z,102643.34
2023-05-02T13:00:39.802Z,102639.25
2023-05-02T13:03:08.356Z,102643.03
2023-05-02T13:05:36.902Z,102637.88
2023-05-02T13:08:06.117Z,102654.09
2023-05-02T13:10:34.285Z,102652.38
2023-05-02T13:13:03.858Z,102654.13
2023-05-02T13:15:31.954Z,102650.44
2023-05-02T13:18:00.079Z,102647.53
2023-05-02T13:20:28.115Z,102642.00
2023-05-02T13:22:56.220Z,102648.91
2023-05-02T13:25:24.378Z,102649.63
2023-05-02T13:27:52.350Z,102657.50
2023-05-02T13:30:22.064Z,102649.31
2023-05-02T13:32:50.024Z,102658.13
2023-05-02T13:35:18.167Z,102654.47
2023-05-02T13:37:49.063Z,102664.25
2023-05-02T13:40:17.299Z,102665.09
2023-05-02T13:42:45.537Z,102666.75
2023-05-02T13:45:14.590Z,102668.22
2023-05-02T13:47:43.986Z,102666.69
2023-05-02T13:50:12.832Z,102663.41
2023-05-02T13:52:40.853Z,102660.34
2023-05-02T13:55:09.644Z,102660.16
2023-05-02T13:57:37.674Z,102649.16
2023-05-02T14:00:09.616Z,102656.06
2023-05-02T14:02:40.715Z,102655.84
2023-05-02T14:05:10.982Z,102652.16
2023-05-02T14:07:39.034Z,102644.97
2023-05-02T14:10:08.299Z,102644.00
2023-05-02T14:12:36.267Z,102655.56
2023-05-02T14:15:04.324Z,102660.78
2023-05-02T14:17:32.517Z,102654.56
2023-05-02T14:20:01.390Z,102658.19
2023-05-02T14:22:31.163Z,102654.53
2023-05-02T14:24:59.092Z,102663.44
2023-05-02T14:27:27.116Z,102662.44
2023-05-02T14:29:55.122Z,102671.31
2023-05-02T14:32:23.103Z,102668.56
2023-05-02T14:34:51.039Z,102660.50
2023-05-02T14:37:18.976Z,102666.72
2023-05-02T14:39:52.214Z,102667.59
2023-05-02T14:42:21.856Z,102666.66
2023-05-02T14:44:49.885Z,102671.09
2023-05-02T14:47:17.960Z,102674.59
2023-05-02T14:49:46.246Z,102667.50
2023-05-02T14:52:14.293Z,102663.91
2023-05-02T14:54:45.199Z,102678.38
2023-05-02T14:57:15.561Z,102675.78
2023-05-02T14:59:43.660Z,102678.41
2023-05-02T15:02:11.681Z,102673.91
2023-05-02T15:04:39.711Z,102672.00
2023-05-02T15:07:08.073Z,102669.25
2023-05-02T15:09:36.657Z,102676.25
2023-05-02T15:12:04.880Z,102678.88
2023-05-02T15:14:34.167Z,102672.53
2023-05-02T15:17:02.343Z,102676.06
2023-05-02T15:19:30.648Z,102678.66
2023-05-02T15:21:58.531Z,102684.03
2023-05-02T15:24:26.635Z,102678.59
2023-05-02T15:26:54.699Z,102680.38
2023-05-02T15:29:22.713Z,102677.56
2023-05-02T15:31:52.176Z,102677.53
2023-05-02T15:34:20.408Z,102681.09
2023-05-02T15:36:48.522Z,102689.06
2023-05-02T15:39:16.500Z,102686.34
2023-05-02T15:41:47.693Z,102688.97
2023-05-02T15:44:15.687Z,102691.59
2023-05-02T15:46:47.177Z,102690.66
2023-05-02T15:49:16.630Z,102688.00
2023-05-02T15:51:44.585Z,102685.25
2023-05-02T15:54:12.491Z,102692.34
2023-05-02T15:56:40.544Z,102686.09
2023-05-02T15:59:08.606Z,102692.31
2023-05-02T16:01:36.595Z,102694.06
2023-05-02T16:04:06.928Z,102693.34
2023-05-02T16:06:36.664Z,102690.66
2023-05-02T16:09:06.415Z,102695.09
2023-05-02T16:11:34.836Z,102700.44
2023-05-02T16:14:02.806Z,102692.41
2023-05-02T16:16:31.330Z,102695.03
2023-05-02T16:18:59.346Z,102699.41
2023-05-02T16:21:30.270Z,102705.81
2023-05-02T16:23:59.614Z,102710.19
2023-05-02T16:26:28.288Z,102711.06
2023-05-02T16:29:00.258Z,102713.75
2023-05-02T16:31:29.233Z,102716.38
2023-05-02T16:33:58.110Z,102712.81
2023-05-02T16:36:26.482Z,102713.03
2023-05-02T16:38:54.431Z,102712.00
2023-05-02T16:41:23.822Z,102709.19
2023-05-02T16:43:51.698Z,102710.84
2023-05-02T16:46:19.701Z,102708.84
2023-05-02T16:48:47.855Z,102708.75
2023-05-02T16:51:15.803Z,102706.16
2023-05-02T16:53:46.377Z,102703.47
2023-05-02T16:56:14.473Z,102713.34
2023-05-02T16:58:43.835Z,102716.03
2023-05-02T17:01:11.947Z,102731.13
2023-05-02T17:03:41.006Z,102718.63
2023-05-02T17:06:09.266Z,102721.28
2023-05-02T17:08:38.132Z,102718.63
2023-05-02T17:11:07.724Z,102725.78
2023-05-02T17:13:35.756Z,102726.66
2023-05-02T17:16:05.517Z,102737.38
2023-05-02T17:18:34.509Z,102732.94
2023-05-02T17:21:03.921Z,102734.72
2023-05-02T17:23:32.253Z,102736.53
2023-05-02T17:26:00.802Z,102729.44
2023-05-02T17:28:28.818Z,102736.53
2023-05-02T17:30:59.284Z,102736.53
2023-05-02T17:33:28.721Z,102754.38
2023-05-02T17:35:59.518Z,102751.72
2023-05-02T17:38:27.736Z,102748.97
2023-05-02T17:40:55.723Z,102752.50
2023-05-02T17:43:26.039Z,102756.06
2023-05-02T17:45:54.030Z,102753.47
2023-05-02T17:48:22.091Z,102753.47
2023-05-02T17:50:51.513Z,102758.84
2023-05-02T17:53:19.508Z,102747.25
2023-05-02T17:55:47.665Z,102752.63
2023-05-02T17:58:15.912Z,102753.56
2023-05-02T18:00:44.111Z,102749.06
2023-05-02T18:03:14.539Z,102755.28
2023-05-02T18:05:44.303Z,102759.75
2023-05-02T18:08:13.717Z,102763.34
2023-05-02T18:10:42.822Z,102769.56
2023-05-02T18:13:10.876Z,102771.38
2023-05-02T18:15:39.000Z,102774.06
2023-05-02T18:18:07.472Z,102772.31
2023-05-02T18:20:39.563Z,102777.69
2023-05-02T18:23:07.852Z,102775.94
2023-05-02T18:25:40.235Z,102779.47
2023-05-02T18:28:08.177Z,102781.28
2023-05-02T18:30:37.654Z,102783.91
2023-05-02T18:33:06.433Z,102786.59
2023-05-02T18:35:34.513Z,102787.56
2023-05-02T18:38:07.606Z,102785.72
2023-05-02T18:40:35.634Z,102783.03
2023-05-02T18:43:04.991Z,102787.47
2023-05-02T18:45:33.441Z,102783.88
2023-05-02T18:48:01.490Z,102779.38
2023-05-02T18:50:29.858Z,102784.75
2023-05-02T18:52:57.809Z,102785.63
2023-05-02T18:55:29.296Z,102790.97
2023-05-02T18:57:57.290Z,102782.00
2023-05-02T19:00:30.092Z,102778.38
2023-05-02T19:02:58.315Z,102779.25
2023-05-02T19:05:27.460Z,102789.06
2023-05-02T19:07:56.079Z,102789.97
2023-05-02T19:10:24.057Z,102787.25
2023-05-02T19:12:52.042Z,102795.25
2023-05-02T19:15:20.017Z,102795.31
2023-05-02T19:17:50.773Z,102803.25
2023-05-02T19:20:18.916Z,102809.38
2023-05-02T19:22:47.468Z,102809.38
2023-05-02T19:25:18.365Z,102805.94
2023-05-02T19:27:47.722Z,102801.47
2023-05-02T19:30:15.956Z,102811.31
2023-05-02T19:32:43.973Z,102807.78
2023-05-02T19:35:13.430Z,102813.13
2023-05-02T19:37:41.419Z,102814.94
2023-05-02T19:40:10.985Z,102814.06
2023-05-02T19:42:39.492Z,102821.19
2023-05-02T19:45:09.909Z,102826.53
2023-05-02T19:47:38.591Z,102825.66
2023-05-02T19:50:07.688Z,102822.97
2023-05-02T19:52:39.046Z,102833.63
2023-05-02T19:55:08.134Z,102832.78
2023-05-02T19:57:36.515Z,102836.31
2023-05-02T20:00:05.979Z,102834.50
2023-05-02T20:02:34.521Z,102839.88
2023-05-02T20:05:02.529Z,102842.56
2023-05-02T20:07:30.498Z,102840.78
2023-05-02T20:09:59.936Z,102840.78
2023-05-02T20:12:28.069Z,102846.06
2023-05-02T20:14:56.073Z,102839.00
2023-05-02T20:17:24.257Z,102846.06
2023-05-02T20:19:52.366Z,102836.22
2023-05-02T20:22:20.308Z,102846.06
2023-05-02T20:24:48.261Z,102850.50
2023-05-02T20:27:20.434Z,102854.06
2023-05-02T20:29:48.568Z,102857.66
2023-05-02T20:32:16.987Z,102859.41
2023-05-02T20:34:44.927Z,102859.38
2023-05-02T20:37:13.387Z,102864.75
2023-05-02T20:39:41.343Z,102859.38
2023-05-02T20:42:09.554Z,102869.19
2023-05-02T20:44:39.212Z,102872.72
2023-05-02T20:47:07.179Z,102866.44
2023-05-02T20:49:35.090Z,102870.91
2023-05-02T20:52:04.980Z,102875.38
2023-05-02T20:54:33.017Z,102870.00
2023-05-02T20:57:00.963Z,102865.56
2023-05-02T20:59:28.969Z,102869.09
2023-05-02T21:01:58.424Z,102858.38
2023-05-02T21:04:26.582Z,102863.75
2023-05-02T21:06:56.767Z,102873.59
2023-05-02T21:09:27.263Z,102873.59
2023-05-02T21:11:55.351Z,102874.47
2023-05-02T21:14:24.976Z,102879.91
2023-05-02T21:16:55.687Z,102870.03
2023-05-02T21:19:25.453Z,102880.78
2023-05-02T21:21:53.480Z,102886.13
2023-05-02T21:24:21.418Z,102881.72
2023-05-02T21:26:49.457Z,102879.97
2023-05-02T21:29:17.478Z,102881.72
2023-05-02T21:31:46.369Z,102874.59
2023-05-02T21:34:15.140Z,102877.28
2023-05-02T21:36:44.459Z,102879.13
2023-05-02T21:39:12.649Z,102881.81
2023-05-02T21:41:40.729Z,102881.81
2023-05-02T21:44:11.528Z,102888.03
2023-05-02T21:46:39.521Z,102883.66
2023-05-02T21:49:07.561Z,102880.09
2023-05-02T21:51:38.582Z,102889.03
2023-05-02T21:54:08.459Z,102889.94
2023-05-02T21:56:36.471Z,102889.03
2023-05-02T21:59:04.448Z,102886.38
2023-05-02T22:01:32.368Z,102885.50
2023-05-02T22:04:00.562Z,102885.50
2023-05-02T22:06:28.809Z,102892.69
2023-05-02T22:08:56.802Z,102890.00
2023-05-02T22:11:26.391Z,102888.25
2023-05-02T22:13:54.634Z,102882.03
2023-05-02T22:16:22.713Z,102882.91
2023-05-02T22:18:50.751Z,102885.59
2023-05-02T22:21:22.398Z,102885.59
2023-05-02T22:23:50.375Z,102883.84
2023-05-02T22:26:18.339Z,102874.06
2023-05-02T22:28:47.709Z,102876.75
2023-05-02T22:31:16.629Z,102876.75
2023-05-02T22:33:45.806Z,102877.63
2023-05-02T22:36:13.736Z,102872.31
2023-05-02T22:38:41.815Z,102872.34
2023-05-02T22:41:12.873Z,102867.00
2023-05-02T22:43:40.889Z,102878.59
2023-05-02T22:46:10.402Z,102875.97
2023-05-02T22:48:38.291Z,102872.41
2023-05-02T22:51:06.443Z,102873.31
2023-05-02T22:53:34.638Z,102877.78
2023-05-02T22:56:03.084Z,102871.63
2023-05-02T22:58:31.110Z,102870.63
2023-05-02T23:00:59.075Z,102865.34
2023-05-02T23:03:28.573Z,102870.72
2023-05-02T23:05:56.638Z,102869.84
2023-05-02T23:08:24.611Z,102861.84
2023-05-02T23:10:52.612Z,102867.16
2023-05-02T23:13:20.762Z,102877.88
2023-05-02T23:15:53.847Z,102876.13
2023-05-02T23:18:21.933Z,102874.34
2023-05-02T23:20:51.752Z,102881.53
2023-05-02T23:23:19.794Z,102875.28
2023-05-02T23:25:48.089Z,102874.41
2023-05-02T23:28:16.170Z,102876.22
2023-05-02T23:30:44.180Z,102873.53
2023-05-02T23:33:12.223Z,102872.66
2023-05-02T23:35:40.531Z,102876.25
2023-05-02T23:38:10.098Z,102879.81
2023-05-02T23:40:38.157Z,102880.69
2023-05-02T23:43:10.252Z,102883.38
2023-05-02T23:45:38.262Z,102882.50
2023-05-02T23:48:06.841Z,102888.81
2023-05-02T23:50:34.890Z,102892.34
2023-05-02T23:53:02.853Z,102894.16
2023-05-02T23:55:32.905Z,102904.94
2023-05-02T23:58:01.064Z,102896.91
